Plymouth, MA

5:13 PM EST on December 25, 2014 (GMT -0500)
Taunton Municipal | Change Station
CLOSE
Current Station
Airport
Location: Taunton,
Elevation: 43 ft
Nearby Weather Stations

Elev 43 ft 41.88 °N, 71.02 °W | Updated 21 minutes ago

Partly Cloudy
Partly Cloudy
49 °F
Feels Like 49 °F
N
7
Wind Variable Wind from WNW

Today
High -- | Low -- °F
--% Chance of Precip.
Yesterday
High -- | Low -- °F
Precip. -- in
7:08 AM 4:16 PM
Waxing Crescent, 19% visible
Pressure 29.78 in
Visibility 10.0 miles
Clouds Clear
Dew Point 30 °F
Humidity 48%
Rainfall 0.21 in
Snow Depth Not available.
UV 0 out of 12
Pollen .10 out of 12
Air Quality Not available.
Flu Activity Not available.
METAR KTAN 252152Z AUTO 29006KT 10SM CLR 09/M01 A2978 RMK AO2 SLP084 T00941011

More Conditions Fewer Conditions

Pressure 29.78 in
Visibility 10.0 miles
Clouds Clear
Dew Point 30 °F
Humidity 48%
Rainfall 0.21 in
Snow Depth Not available.
UV 0 out of 12
Pollen .10 out of 12
Air Quality Not available.
Flu Activity Not available.
METAR KTAN 252152Z AUTO 29006KT 10SM CLR 09/M01 A2978 RMK AO2 SLP084 T00941011

More Conditions Fewer Conditions

10-Day Weather Forecast

Almanac

Astronomy

Dec. 25, 2014 Rise Set
Actual Time
Civil Twilight
Nautical Twilight
Astronomical Twilight
Moon
Length of Visible Light
Length of Day
Tomorrow will be .
, % of the Moon is Illuminated

Today's Extremes

State Highs State Lows

Community

WunderPhotos

Upload Photos

1,780,424 photos uploaded!

WunderBlogs® & News

Nearby

Air Quality

  Air Quality AQ Index Pollutant
Not available.

Snow Depth

Station Depth Elevation

Earthquake Activity

City Distance Mag. Time & Date
Minimum magnitude displayed is 2.5.

Coastal Water Temperatures

Place Temperature

Nearby Weather Stations